Terminal Aerodrome Forecast
Issued by NWS

Home | Current Version | Previous Version | Text Only | Print | Product List | Glossary On
Versions: 1 2 3 4 5 6 7 8 9 10 11 12 13 14 15 16 17 18 19 20 21 22 23 24 25 26 27 28
000
FTUS43 KLSX 171517 AAB
TAFSUS
TAF AMD
KSUS 171517Z 1715/1812 25012KT P6SM SCT090 BKN250
      TEMPO 1715/1717 BKN015
     FM171700 26010G17KT P6SM SCT035
     FM180100 27004KT P6SM SKC=

USA.gov is the U.S. government's official web portal to all federal, state and local government web resources and services.